sensor_id;sensor_type;location;lat;lon;timestamp;P1;durP1;ratioP1;P2;durP2;ratioP2
52342;SDS011;38277;51.972;4.624;2022-07-17T00:03:50;5.5;;;1.8;;
52342;SDS011;38277;51.972;4.624;2022-07-17T00:12:53;2.2;;;1.5;;
52342;SDS011;38277;51.972;4.624;2022-07-17T00:17:03;4.2;;;2.3;;
52342;SDS011;38277;51.972;4.624;2022-07-17T00:26:25;3.4;;;1.9;;
52342;SDS011;38277;51.972;4.624;2022-07-17T00:30:32;4.0;;;2.0;;
52342;SDS011;38277;51.972;4.624;2022-07-17T00:35:01;3.7;;;1.9;;
52342;SDS011;38277;51.972;4.624;2022-07-17T00:39:54;4.4;;;2.2;;
52342;SDS011;38277;51.972;4.624;2022-07-17T00:48:33;4.4;;;2.3;;
52342;SDS011;38277;51.972;4.624;2022-07-17T00:57:34;4.8;;;2.1;;
52342;SDS011;38277;51.972;4.624;2022-07-17T01:02:30;5.0;;;2.3;;
52342;SDS011;38277;51.972;4.624;2022-07-17T01:08:33;4.2;;;2.2;;
52342;SDS011;38277;51.972;4.624;2022-07-17T01:15:32;3.7;;;1.8;;
52342;SDS011;38277;51.972;4.624;2022-07-17T01:21:36;2.7;;;1.8;;
52342;SDS011;38277;51.972;4.624;2022-07-17T01:29:26;4.5;;;2.1;;
52342;SDS011;38277;51.972;4.624;2022-07-17T01:35:28;3.0;;;2.0;;
52342;SDS011;38277;51.972;4.624;2022-07-17T01:42:48;5.7;;;1.9;;
52342;SDS011;38277;51.972;4.624;2022-07-17T01:48:48;4.2;;;1.9;;
52342;SDS011;38277;51.972;4.624;2022-07-17T01:56:00;3.2;;;1.9;;
52342;SDS011;38277;51.972;4.624;2022-07-17T02:02:02;3.1;;;1.9;;
52342;SDS011;38277;51.972;4.624;2022-07-17T02:09:56;2.9;;;1.7;;
52342;SDS011;38277;51.972;4.624;2022-07-17T02:13:57;3.8;;;2.0;;
52342;SDS011;38277;51.972;4.624;2022-07-17T02:23:09;4.8;;;2.5;;
52342;SDS011;38277;51.972;4.624;2022-07-17T02:32:14;5.2;;;2.5;;
52342;SDS011;38277;51.972;4.624;2022-07-17T02:36:31;4.1;;;2.2;;
52342;SDS011;38277;51.972;4.624;2022-07-17T02:41:27;3.6;;;2.3;;
52342;SDS011;38277;51.972;4.624;2022-07-17T02:53:32;4.7;;;1.7;;
52342;SDS011;38277;51.972;4.624;2022-07-17T02:59:34;3.8;;;2.6;;
52342;SDS011;38277;51.972;4.624;2022-07-17T03:08:37;4.3;;;1.9;;
52342;SDS011;38277;51.972;4.624;2022-07-17T03:17:40;4.2;;;2.0;;
52342;SDS011;38277;51.972;4.624;2022-07-17T03:22:36;5.2;;;2.4;;
52342;SDS011;38277;51.972;4.624;2022-07-17T03:34:41;4.1;;;2.3;;
52342;SDS011;38277;51.972;4.624;2022-07-17T03:40:43;2.5;;;1.8;;
52342;SDS011;38277;51.972;4.624;2022-07-17T03:52:47;3.8;;;2.2;;
52342;SDS011;38277;51.972;4.624;2022-07-17T03:58:49;5.2;;;2.8;;
52342;SDS011;38277;51.972;4.624;2022-07-17T04:07:52;3.2;;;2.1;;
52342;SDS011;38277;51.972;4.624;2022-07-17T04:16:55;4.4;;;2.0;;
52342;SDS011;38277;51.972;4.624;2022-07-17T04:25:58;3.9;;;2.2;;
52342;SDS011;38277;51.972;4.624;2022-07-17T04:35:01;3.4;;;2.2;;
52342;SDS011;38277;51.972;4.624;2022-07-17T04:44:04;4.6;;;2.2;;
52342;SDS011;38277;51.972;4.624;2022-07-17T04:53:08;4.0;;;2.2;;
52342;SDS011;38277;51.972;4.624;2022-07-17T05:00:50;3.5;;;1.9;;
52342;SDS011;38277;51.972;4.624;2022-07-17T05:06:53;4.9;;;2.1;;
52342;SDS011;38277;51.972;4.624;2022-07-17T05:17:20;3.9;;;1.9;;
52342;SDS011;38277;51.972;4.624;2022-07-17T05:20:21;8.5;;;2.4;;
52342;SDS011;38277;51.972;4.624;2022-07-17T05:27:43;5.1;;;1.8;;
52342;SDS011;38277;51.972;4.624;2022-07-17T05:33:46;4.8;;;2.5;;
52342;SDS011;38277;51.972;4.624;2022-07-17T05:41:05;3.4;;;1.5;;
52342;SDS011;38277;51.972;4.624;2022-07-17T05:47:08;3.7;;;1.4;;
52342;SDS011;38277;51.972;4.624;2022-07-17T05:54:33;5.9;;;1.7;;
52342;SDS011;38277;51.972;4.624;2022-07-17T06:00:35;3.6;;;1.6;;
52342;SDS011;38277;51.972;4.624;2022-07-17T06:08:04;2.9;;;1.6;;
52342;SDS011;38277;51.972;4.624;2022-07-17T06:14:06;3.5;;;1.6;;
52342;SDS011;38277;51.972;4.624;2022-07-17T06:21:31;3.6;;;1.6;;
52342;SDS011;38277;51.972;4.624;2022-07-17T06:27:34;5.1;;;1.6;;
52342;SDS011;38277;51.972;4.624;2022-07-17T06:35:11;6.4;;;1.9;;
52342;SDS011;38277;51.972;4.624;2022-07-17T06:40:07;4.0;;;1.5;;
52342;SDS011;38277;51.972;4.624;2022-07-17T06:48:49;5.8;;;2.0;;
52342;SDS011;38277;51.972;4.624;2022-07-17T06:57:46;5.5;;;1.6;;
52342;SDS011;38277;51.972;4.624;2022-07-17T07:02:04;4.0;;;1.4;;
52342;SDS011;38277;51.972;4.624;2022-07-17T07:11:06;5.1;;;1.7;;
52342;SDS011;38277;51.972;4.624;2022-07-17T07:20:24;2.5;;;1.0;;
52342;SDS011;38277;51.972;4.624;2022-07-17T07:24:41;2.7;;;1.1;;
52342;SDS011;38277;51.972;4.624;2022-07-17T07:33:27;2.9;;;1.2;;
52342;SDS011;38277;51.972;4.624;2022-07-17T07:38:23;5.6;;;1.4;;
52342;SDS011;38277;51.972;4.624;2022-07-17T07:42:32;5.3;;;1.2;;
52342;SDS011;38277;51.972;4.624;2022-07-17T07:47:46;1.5;;;1.0;;
52342;SDS011;38277;51.972;4.624;2022-07-17T07:52:57;7.4;;;1.7;;
52342;SDS011;38277;51.972;4.624;2022-07-17T08:02:01;3.7;;;1.5;;
52342;SDS011;38277;51.972;4.624;2022-07-17T08:11:04;4.7;;;1.0;;
52342;SDS011;38277;51.972;4.624;2022-07-17T08:23:08;2.7;;;1.2;;
52342;SDS011;38277;51.972;4.624;2022-07-17T08:29:11;3.5;;;1.3;;
52342;SDS011;38277;51.972;4.624;2022-07-17T08:38:13;3.9;;;1.3;;
52342;SDS011;38277;51.972;4.624;2022-07-17T08:47:16;3.8;;;1.2;;
52342;SDS011;38277;51.972;4.624;2022-07-17T08:56:20;4.6;;;1.3;;
52342;SDS011;38277;51.972;4.624;2022-07-17T09:05:23;3.4;;;1.2;;
52342;SDS011;38277;51.972;4.624;2022-07-17T09:14:35;2.3;;;1.2;;
52342;SDS011;38277;51.972;4.624;2022-07-17T09:26:30;4.4;;;1.7;;
52342;SDS011;38277;51.972;4.624;2022-07-17T09:35:33;3.9;;;1.0;;
52342;SDS011;38277;51.972;4.624;2022-07-17T09:40:29;1.8;;;1.2;;
52342;SDS011;38277;51.972;4.624;2022-07-17T09:47:07;2.2;;;1.3;;
52342;SDS011;38277;51.972;4.624;2022-07-17T09:53:19;2.0;;;1.1;;
52342;SDS011;38277;51.972;4.624;2022-07-17T09:57:40;1.7;;;0.9;;
52342;SDS011;38277;51.972;4.624;2022-07-17T10:01:59;3.3;;;1.4;;
52342;SDS011;38277;51.972;4.624;2022-07-17T10:11:22;2.2;;;1.1;;
52342;SDS011;38277;51.972;4.624;2022-07-17T10:15:44;4.2;;;1.3;;
52342;SDS011;38277;51.972;4.624;2022-07-17T10:20:03;1.8;;;1.1;;
52342;SDS011;38277;51.972;4.624;2022-07-17T10:29:27;5.7;;;1.3;;
52342;SDS011;38277;51.972;4.624;2022-07-17T10:33:30;1.8;;;1.2;;
52342;SDS011;38277;51.972;4.624;2022-07-17T10:38:22;3.9;;;1.3;;
52342;SDS011;38277;51.972;4.624;2022-07-17T10:42:43;2.8;;;1.1;;
52342;SDS011;38277;51.972;4.624;2022-07-17T10:51:39;2.4;;;1.1;;
52342;SDS011;38277;51.972;4.624;2022-07-17T10:56:13;1.4;;;1.0;;
52342;SDS011;38277;51.972;4.624;2022-07-17T11:00:35;2.2;;;1.1;;
52342;SDS011;38277;51.972;4.624;2022-07-17T11:05:08;2.2;;;1.2;;
52342;SDS011;38277;51.972;4.624;2022-07-17T11:09:46;2.3;;;1.5;;
52342;SDS011;38277;51.972;4.624;2022-07-17T11:14:08;3.0;;;1.5;;
52342;SDS011;38277;51.972;4.624;2022-07-17T11:18:50;2.4;;;1.2;;
52342;SDS011;38277;51.972;4.624;2022-07-17T11:27:36;2.3;;;1.4;;
52342;SDS011;38277;51.972;4.624;2022-07-17T11:32:09;2.5;;;1.2;;
52342;SDS011;38277;51.972;4.624;2022-07-17T11:36:42;3.3;;;1.0;;
52342;SDS011;38277;51.972;4.624;2022-07-17T11:45:54;1.6;;;1.3;;
52342;SDS011;38277;51.972;4.624;2022-07-17T11:50:07;2.7;;;1.6;;
52342;SDS011;38277;51.972;4.624;2022-07-17T12:03:46;3.1;;;1.6;;
52342;SDS011;38277;51.972;4.624;2022-07-17T12:07:59;2.4;;;1.3;;
52342;SDS011;38277;51.972;4.624;2022-07-17T12:12:27;3.5;;;1.4;;
52342;SDS011;38277;51.972;4.624;2022-07-17T12:21:45;4.8;;;1.7;;
52342;SDS011;38277;51.972;4.624;2022-07-17T12:30:50;3.4;;;1.7;;
52342;SDS011;38277;51.972;4.624;2022-07-17T12:44:22;2.8;;;1.7;;
52342;SDS011;38277;51.972;4.624;2022-07-17T12:48:47;4.8;;;2.1;;
52342;SDS011;38277;51.972;4.624;2022-07-17T12:53:21;4.4;;;2.3;;
52342;SDS011;38277;51.972;4.624;2022-07-17T12:57:35;4.4;;;2.2;;
52342;SDS011;38277;51.972;4.624;2022-07-17T13:02:12;3.6;;;1.9;;
52342;SDS011;38277;51.972;4.624;2022-07-17T13:07:05;2.9;;;2.0;;
52342;SDS011;38277;51.972;4.624;2022-07-17T13:11:37;8.3;;;3.2;;
52342;SDS011;38277;51.972;4.624;2022-07-17T13:15:44;8.6;;;3.7;;
52342;SDS011;38277;51.972;4.624;2022-07-17T13:20:05;4.2;;;2.1;;
52342;SDS011;38277;51.972;4.624;2022-07-17T13:24:34;5.1;;;2.5;;
52342;SDS011;38277;51.972;4.624;2022-07-17T13:29:35;5.8;;;2.6;;
52342;SDS011;38277;51.972;4.624;2022-07-17T13:33:38;4.8;;;2.3;;
52342;SDS011;38277;51.972;4.624;2022-07-17T13:38:17;6.3;;;2.7;;
52342;SDS011;38277;51.972;4.624;2022-07-17T13:42:52;3.3;;;2.1;;
52342;SDS011;38277;51.972;4.624;2022-07-17T13:51:54;4.8;;;2.6;;
52342;SDS011;38277;51.972;4.624;2022-07-17T13:56:20;5.8;;;2.7;;
52342;SDS011;38277;51.972;4.624;2022-07-17T14:00:47;7.1;;;3.1;;
52342;SDS011;38277;51.972;4.624;2022-07-17T14:14:08;5.7;;;2.9;;
52342;SDS011;38277;51.972;4.624;2022-07-17T14:27:45;5.7;;;3.4;;
52342;SDS011;38277;51.972;4.624;2022-07-17T14:32:20;5.8;;;3.2;;
52342;SDS011;38277;51.972;4.624;2022-07-17T14:36:38;4.2;;;3.2;;
52342;SDS011;38277;51.972;4.624;2022-07-17T14:45:38;4.3;;;3.1;;
52342;SDS011;38277;51.972;4.624;2022-07-17T14:50:07;9.5;;;4.5;;
52342;SDS011;38277;51.972;4.624;2022-07-17T14:55:00;7.0;;;4.1;;
52342;SDS011;38277;51.972;4.624;2022-07-17T14:59:10;4.1;;;3.0;;
52342;SDS011;38277;51.972;4.624;2022-07-17T15:03:31;5.8;;;3.8;;
52342;SDS011;38277;51.972;4.624;2022-07-17T15:08:23;5.7;;;4.1;;
52342;SDS011;38277;51.972;4.624;2022-07-17T15:12:47;4.6;;;3.6;;
52342;SDS011;38277;51.972;4.624;2022-07-17T15:17:08;4.1;;;3.0;;
52342;SDS011;38277;51.972;4.624;2022-07-17T15:21:44;5.9;;;4.0;;
52342;SDS011;38277;51.972;4.624;2022-07-17T15:26:09;6.4;;;4.0;;
52342;SDS011;38277;51.972;4.624;2022-07-17T15:30:48;5.8;;;3.7;;
52342;SDS011;38277;51.972;4.624;2022-07-17T15:34:57;5.2;;;3.7;;
52342;SDS011;38277;51.972;4.624;2022-07-17T15:39:51;5.5;;;3.4;;
52342;SDS011;38277;51.972;4.624;2022-07-17T15:43:59;5.1;;;3.5;;
52342;SDS011;38277;51.972;4.624;2022-07-17T15:48:31;4.5;;;3.1;;
52342;SDS011;38277;51.972;4.624;2022-07-17T15:53:04;8.1;;;3.8;;
52342;SDS011;38277;51.972;4.624;2022-07-17T15:57:47;5.8;;;3.6;;
52342;SDS011;38277;51.972;4.624;2022-07-17T16:06:44;6.0;;;3.7;;
52342;SDS011;38277;51.972;4.624;2022-07-17T16:15:54;8.2;;;3.8;;
52342;SDS011;38277;51.972;4.624;2022-07-17T16:20:06;5.4;;;3.6;;
52342;SDS011;38277;51.972;4.624;2022-07-17T16:25:00;6.6;;;4.1;;
52342;SDS011;38277;51.972;4.624;2022-07-17T16:29:23;6.2;;;3.6;;
52342;SDS011;38277;51.972;4.624;2022-07-17T16:33:39;7.2;;;4.1;;
52342;SDS011;38277;51.972;4.624;2022-07-17T16:42:49;8.2;;;4.1;;
52342;SDS011;38277;51.972;4.624;2022-07-17T16:47:23;6.2;;;3.5;;
52342;SDS011;38277;51.972;4.624;2022-07-17T16:51:49;7.9;;;3.9;;
52342;SDS011;38277;51.972;4.624;2022-07-17T17:00:54;5.9;;;3.4;;
52342;SDS011;38277;51.972;4.624;2022-07-17T17:05:15;4.8;;;3.1;;
52342;SDS011;38277;51.972;4.624;2022-07-17T17:09:50;6.1;;;3.8;;
52342;SDS011;38277;51.972;4.624;2022-07-17T17:14:25;5.6;;;3.4;;
52342;SDS011;38277;51.972;4.624;2022-07-17T17:18:48;7.8;;;3.3;;
52342;SDS011;38277;51.972;4.624;2022-07-17T17:23:21;5.5;;;3.5;;
52342;SDS011;38277;51.972;4.624;2022-07-17T17:27:50;5.9;;;3.9;;
52342;SDS011;38277;51.972;4.624;2022-07-17T17:32:23;7.5;;;3.9;;
52342;SDS011;38277;51.972;4.624;2022-07-17T17:36:47;5.0;;;3.2;;
52342;SDS011;38277;51.972;4.624;2022-07-17T17:41:06;6.1;;;3.5;;
52342;SDS011;38277;51.972;4.624;2022-07-17T17:45:53;10.8;;;6.7;;
52342;SDS011;38277;51.972;4.624;2022-07-17T17:50:25;8.1;;;4.6;;
52342;SDS011;38277;51.972;4.624;2022-07-17T17:54:46;6.0;;;3.7;;
52342;SDS011;38277;51.972;4.624;2022-07-17T17:59:35;6.2;;;3.6;;
52342;SDS011;38277;51.972;4.624;2022-07-17T18:03:27;5.9;;;3.9;;
52342;SDS011;38277;51.972;4.624;2022-07-17T18:08:21;8.0;;;4.6;;
52342;SDS011;38277;51.972;4.624;2022-07-17T18:12:35;5.9;;;3.6;;
52342;SDS011;38277;51.972;4.624;2022-07-17T18:17:26;8.4;;;4.4;;
52342;SDS011;38277;51.972;4.624;2022-07-17T18:21:28;7.3;;;3.7;;
52342;SDS011;38277;51.972;4.624;2022-07-17T18:26:17;6.7;;;3.8;;
52342;SDS011;38277;51.972;4.624;2022-07-17T18:30:40;7.9;;;3.7;;
52342;SDS011;38277;51.972;4.624;2022-07-17T18:39:29;6.1;;;3.9;;
52342;SDS011;38277;51.972;4.624;2022-07-17T18:44:18;6.3;;;3.8;;
52342;SDS011;38277;51.972;4.624;2022-07-17T18:57:53;6.3;;;3.9;;
52342;SDS011;38277;51.972;4.624;2022-07-17T19:02:08;7.0;;;4.5;;
52342;SDS011;38277;51.972;4.624;2022-07-17T19:06:50;9.6;;;4.7;;
52342;SDS011;38277;51.972;4.624;2022-07-17T19:15:26;8.5;;;5.2;;
52342;SDS011;38277;51.972;4.624;2022-07-17T19:20:14;7.7;;;4.6;;
52342;SDS011;38277;51.972;4.624;2022-07-17T19:24:26;6.0;;;4.0;;
52342;SDS011;38277;51.972;4.624;2022-07-17T19:29:25;9.6;;;4.2;;
52342;SDS011;38277;51.972;4.624;2022-07-17T19:33:39;8.7;;;4.5;;
52342;SDS011;38277;51.972;4.624;2022-07-17T19:38:16;7.3;;;4.2;;
52342;SDS011;38277;51.972;4.624;2022-07-17T19:42:31;7.0;;;4.1;;
52342;SDS011;38277;51.972;4.624;2022-07-17T19:47:15;7.5;;;4.3;;
52342;SDS011;38277;51.972;4.624;2022-07-17T19:51:39;8.0;;;4.9;;
52342;SDS011;38277;51.972;4.624;2022-07-17T19:56:20;9.5;;;5.3;;
52342;SDS011;38277;51.972;4.624;2022-07-17T20:00:27;9.8;;;5.5;;
52342;SDS011;38277;51.972;4.624;2022-07-17T20:04:58;12.9;;;6.3;;
52342;SDS011;38277;51.972;4.624;2022-07-17T20:09:48;14.6;;;7.6;;
52342;SDS011;38277;51.972;4.624;2022-07-17T20:14:10;11.8;;;6.3;;
52342;SDS011;38277;51.972;4.624;2022-07-17T20:23:09;12.6;;;5.9;;
52342;SDS011;38277;51.972;4.624;2022-07-17T20:27:35;11.1;;;5.4;;
52342;SDS011;38277;51.972;4.624;2022-07-17T20:31:58;9.4;;;5.1;;
52342;SDS011;38277;51.972;4.624;2022-07-17T20:41:05;7.7;;;4.6;;
52342;SDS011;38277;51.972;4.624;2022-07-17T20:45:36;12.1;;;5.4;;
52342;SDS011;38277;51.972;4.624;2022-07-17T20:49:56;10.8;;;5.6;;
52342;SDS011;38277;51.972;4.624;2022-07-17T20:58:59;9.1;;;4.9;;
52342;SDS011;38277;51.972;4.624;2022-07-17T21:03:40;8.2;;;4.6;;
52342;SDS011;38277;51.972;4.624;2022-07-17T21:07:58;9.9;;;4.9;;
52342;SDS011;38277;51.972;4.624;2022-07-17T21:12:39;8.4;;;4.9;;
52342;SDS011;38277;51.972;4.624;2022-07-17T21:17:30;7.4;;;4.4;;
52342;SDS011;38277;51.972;4.624;2022-07-17T21:21:26;8.6;;;4.7;;
52342;SDS011;38277;51.972;4.624;2022-07-17T21:26:09;8.3;;;4.6;;
52342;SDS011;38277;51.972;4.624;2022-07-17T21:30:37;7.9;;;4.6;;
52342;SDS011;38277;51.972;4.624;2022-07-17T21:35:29;8.5;;;4.7;;
52342;SDS011;38277;51.972;4.624;2022-07-17T21:39:29;8.6;;;4.6;;
52342;SDS011;38277;51.972;4.624;2022-07-17T21:44:23;9.0;;;4.8;;
52342;SDS011;38277;51.972;4.624;2022-07-17T21:48:35;8.6;;;5.1;;
52342;SDS011;38277;51.972;4.624;2022-07-17T22:06:32;11.2;;;6.2;;
52342;SDS011;38277;51.972;4.624;2022-07-17T22:11:13;11.0;;;6.0;;
52342;SDS011;38277;51.972;4.624;2022-07-17T22:16:02;10.9;;;5.7;;
52342;SDS011;38277;51.972;4.624;2022-07-17T22:20:17;7.8;;;4.9;;
52342;SDS011;38277;51.972;4.624;2022-07-17T22:24:30;9.6;;;5.4;;
52342;SDS011;38277;51.972;4.624;2022-07-17T22:29:34;9.9;;;5.4;;
52342;SDS011;38277;51.972;4.624;2022-07-17T22:33:28;9.6;;;5.6;;
52342;SDS011;38277;51.972;4.624;2022-07-17T22:38:22;10.1;;;5.2;;
52342;SDS011;38277;51.972;4.624;2022-07-17T22:42:58;9.0;;;5.2;;
52342;SDS011;38277;51.972;4.624;2022-07-17T22:47:25;10.9;;;5.7;;
52342;SDS011;38277;51.972;4.624;2022-07-17T22:51:44;8.8;;;4.8;;
52342;SDS011;38277;51.972;4.624;2022-07-17T22:56:10;9.9;;;5.3;;
52342;SDS011;38277;51.972;4.624;2022-07-17T23:00:57;9.7;;;5.2;;
52342;SDS011;38277;51.972;4.624;2022-07-17T23:05:07;9.1;;;5.0;;
52342;SDS011;38277;51.972;4.624;2022-07-17T23:09:40;9.6;;;5.3;;
52342;SDS011;38277;51.972;4.624;2022-07-17T23:13:59;7.9;;;4.7;;
52342;SDS011;38277;51.972;4.624;2022-07-17T23:23:20;6.4;;;3.9;;
52342;SDS011;38277;51.972;4.624;2022-07-17T23:27:39;6.8;;;4.0;;
52342;SDS011;38277;51.972;4.624;2022-07-17T23:36:39;8.4;;;4.6;;
52342;SDS011;38277;51.972;4.624;2022-07-17T23:41:05;9.3;;;4.7;;
52342;SDS011;38277;51.972;4.624;2022-07-17T23:45:31;8.4;;;4.3;;
52342;SDS011;38277;51.972;4.624;2022-07-17T23:54:38;9.0;;;4.7;;
52342;SDS011;38277;51.972;4.624;2022-07-17T23:59:17;10.6;;;5.1;;
